sensor_id;sensor_type;location;lat;lon;timestamp;temperature;humidity
19493;DHT22;9887;54.366;10.958;2024-03-23T00:51:28;8.10;99.90
19493;DHT22;9887;54.366;10.958;2024-03-23T00:53:54;8.00;99.90
19493;DHT22;9887;54.366;10.958;2024-03-23T00:56:21;8.10;99.90
19493;DHT22;9887;54.366;10.958;2024-03-23T00:58:47;8.10;99.90
19493;DHT22;9887;54.366;10.958;2024-03-23T01:01:14;8.10;99.90
19493;DHT22;9887;54.366;10.958;2024-03-23T01:03:40;8.10;99.90
19493;DHT22;9887;54.366;10.958;2024-03-23T01:06:07;8.00;99.90
19493;DHT22;9887;54.366;10.958;2024-03-23T01:08:34;8.00;99.90
19493;DHT22;9887;54.366;10.958;2024-03-23T01:11:01;8.00;99.90
19493;DHT22;9887;54.366;10.958;2024-03-23T01:13:28;8.00;99.90
19493;DHT22;9887;54.366;10.958;2024-03-23T01:15:56;8.00;99.90
19493;DHT22;9887;54.366;10.958;2024-03-23T01:18:23;8.00;99.90
19493;DHT22;9887;54.366;10.958;2024-03-23T01:20:52;7.90;99.90
19493;DHT22;9887;54.366;10.958;2024-03-23T01:23:18;7.90;99.90
19493;DHT22;9887;54.366;10.958;2024-03-23T01:25:53;7.90;99.90
19493;DHT22;9887;54.366;10.958;2024-03-23T01:28:19;8.00;99.90
19493;DHT22;9887;54.366;10.958;2024-03-23T01:30:46;8.00;99.90
19493;DHT22;9887;54.366;10.958;2024-03-23T01:38:05;7.90;99.90
19493;DHT22;9887;54.366;10.958;2024-03-23T01:40:32;7.90;99.90
19493;DHT22;9887;54.366;10.958;2024-03-23T01:43:03;7.90;99.90
19493;DHT22;9887;54.366;10.958;2024-03-23T01:45:31;7.80;99.90
19493;DHT22;9887;54.366;10.958;2024-03-23T01:47:58;7.80;99.90
19493;DHT22;9887;54.366;10.958;2024-03-23T01:50:25;7.90;99.90
19493;DHT22;9887;54.366;10.958;2024-03-23T01:52:51;7.90;99.90
19493;DHT22;9887;54.366;10.958;2024-03-23T01:55:18;7.90;99.90
19493;DHT22;9887;54.366;10.958;2024-03-23T01:57:45;7.80;99.90
19493;DHT22;9887;54.366;10.958;2024-03-23T02:00:13;7.70;99.90
19493;DHT22;9887;54.366;10.958;2024-03-23T02:02:43;7.90;99.90
19493;DHT22;9887;54.366;10.958;2024-03-23T02:05:11;7.80;99.90
19493;DHT22;9887;54.366;10.958;2024-03-23T02:07:37;7.70;99.90
19493;DHT22;9887;54.366;10.958;2024-03-23T02:10:06;7.70;99.90
19493;DHT22;9887;54.366;10.958;2024-03-23T02:12:32;7.70;99.90
19493;DHT22;9887;54.366;10.958;2024-03-23T02:14:59;7.70;99.90
19493;DHT22;9887;54.366;10.958;2024-03-23T02:17:27;7.70;99.90
19493;DHT22;9887;54.366;10.958;2024-03-23T02:19:54;7.70;99.90
19493;DHT22;9887;54.366;10.958;2024-03-23T02:22:20;7.70;99.90
19493;DHT22;9887;54.366;10.958;2024-03-23T02:24:48;7.70;99.90
19493;DHT22;9887;54.366;10.958;2024-03-23T02:27:14;7.70;99.90
19493;DHT22;9887;54.366;10.958;2024-03-23T02:29:41;7.70;99.90
19493;DHT22;9887;54.366;10.958;2024-03-23T02:32:07;7.70;99.90
19493;DHT22;9887;54.366;10.958;2024-03-23T02:34:35;7.60;99.90
19493;DHT22;9887;54.366;10.958;2024-03-23T02:37:01;7.60;99.90
19493;DHT22;9887;54.366;10.958;2024-03-23T02:39:28;7.60;99.90
19493;DHT22;9887;54.366;10.958;2024-03-23T02:41:55;7.60;99.90
19493;DHT22;9887;54.366;10.958;2024-03-23T02:44:22;7.60;99.90
19493;DHT22;9887;54.366;10.958;2024-03-23T02:46:48;7.60;99.90
19493;DHT22;9887;54.366;10.958;2024-03-23T02:49:15;7.60;99.90
19493;DHT22;9887;54.366;10.958;2024-03-23T02:51:41;7.60;99.90
19493;DHT22;9887;54.366;10.958;2024-03-23T02:54:11;7.60;99.90
19493;DHT22;9887;54.366;10.958;2024-03-23T02:56:37;7.50;99.90
19493;DHT22;9887;54.366;10.958;2024-03-23T02:59:05;7.50;99.90
19493;DHT22;9887;54.366;10.958;2024-03-23T03:01:31;7.50;99.90
19493;DHT22;9887;54.366;10.958;2024-03-23T03:03:58;7.50;99.90
19493;DHT22;9887;54.366;10.958;2024-03-23T03:06:24;7.50;99.90
19493;DHT22;9887;54.366;10.958;2024-03-23T03:08:51;7.50;99.90
19493;DHT22;9887;54.366;10.958;2024-03-23T03:11:17;7.50;99.90
19493;DHT22;9887;54.366;10.958;2024-03-23T03:13:44;7.50;99.90
19493;DHT22;9887;54.366;10.958;2024-03-23T03:16:11;7.50;99.90
19493;DHT22;9887;54.366;10.958;2024-03-23T03:18:38;7.50;99.90
19493;DHT22;9887;54.366;10.958;2024-03-23T03:21:06;7.40;99.90
19493;DHT22;9887;54.366;10.958;2024-03-23T03:23:36;7.40;99.90
19493;DHT22;9887;54.366;10.958;2024-03-23T03:26:03;7.40;99.90
19493;DHT22;9887;54.366;10.958;2024-03-23T03:28:30;7.40;99.90
19493;DHT22;9887;54.366;10.958;2024-03-23T03:30:57;7.40;99.90
19493;DHT22;9887;54.366;10.958;2024-03-23T03:33:26;7.40;99.90
19493;DHT22;9887;54.366;10.958;2024-03-23T03:35:52;7.40;99.90
19493;DHT22;9887;54.366;10.958;2024-03-23T03:38:19;7.40;99.90
19493;DHT22;9887;54.366;10.958;2024-03-23T03:40:46;7.40;99.90
19493;DHT22;9887;54.366;10.958;2024-03-23T03:43:13;7.30;99.90
19493;DHT22;9887;54.366;10.958;2024-03-23T03:45:39;7.30;99.90
19493;DHT22;9887;54.366;10.958;2024-03-23T03:48:07;7.30;99.90
19493;DHT22;9887;54.366;10.958;2024-03-23T03:50:34;7.30;99.90
19493;DHT22;9887;54.366;10.958;2024-03-23T03:53:01;7.30;99.90
19493;DHT22;9887;54.366;10.958;2024-03-23T03:55:27;7.30;99.90
19493;DHT22;9887;54.366;10.958;2024-03-23T03:57:54;7.20;99.90
19493;DHT22;9887;54.366;10.958;2024-03-23T04:00:20;7.30;99.90
19493;DHT22;9887;54.366;10.958;2024-03-23T04:02:47;7.20;99.90
19493;DHT22;9887;54.366;10.958;2024-03-23T04:05:13;7.20;99.90
19493;DHT22;9887;54.366;10.958;2024-03-23T04:07:42;7.20;99.90
19493;DHT22;9887;54.366;10.958;2024-03-23T04:10:08;7.20;99.90
19493;DHT22;9887;54.366;10.958;2024-03-23T04:12:35;7.20;99.90
19493;DHT22;9887;54.366;10.958;2024-03-23T04:15:01;7.20;99.90
19493;DHT22;9887;54.366;10.958;2024-03-23T04:17:31;7.20;99.90
19493;DHT22;9887;54.366;10.958;2024-03-23T04:19:58;7.20;99.90
19493;DHT22;9887;54.366;10.958;2024-03-23T04:22:26;7.10;99.90
19493;DHT22;9887;54.366;10.958;2024-03-23T04:24:54;7.10;99.90
19493;DHT22;9887;54.366;10.958;2024-03-23T04:27:22;7.10;99.90
19493;DHT22;9887;54.366;10.958;2024-03-23T04:29:48;7.10;99.90
19493;DHT22;9887;54.366;10.958;2024-03-23T04:32:15;7.10;99.90
19493;DHT22;9887;54.366;10.958;2024-03-23T04:34:43;7.10;99.90
19493;DHT22;9887;54.366;10.958;2024-03-23T04:37:10;7.10;99.90
19493;DHT22;9887;54.366;10.958;2024-03-23T04:39:37;7.00;99.90
19493;DHT22;9887;54.366;10.958;2024-03-23T04:42:06;7.00;99.90
19493;DHT22;9887;54.366;10.958;2024-03-23T04:44:33;7.10;99.90
19493;DHT22;9887;54.366;10.958;2024-03-23T04:47:00;7.00;99.90
19493;DHT22;9887;54.366;10.958;2024-03-23T04:49:27;7.00;99.90
19493;DHT22;9887;54.366;10.958;2024-03-23T04:51:55;7.00;99.90
19493;DHT22;9887;54.366;10.958;2024-03-23T04:54:22;7.00;99.90
19493;DHT22;9887;54.366;10.958;2024-03-23T04:56:49;7.00;99.90
19493;DHT22;9887;54.366;10.958;2024-03-23T04:59:18;7.00;99.90
19493;DHT22;9887;54.366;10.958;2024-03-23T05:01:44;7.00;99.90
19493;DHT22;9887;54.366;10.958;2024-03-23T05:04:11;7.00;99.90
19493;DHT22;9887;54.366;10.958;2024-03-23T05:06:37;6.90;99.90
19493;DHT22;9887;54.366;10.958;2024-03-23T05:09:04;7.00;99.90
19493;DHT22;9887;54.366;10.958;2024-03-23T05:11:32;7.00;99.90
19493;DHT22;9887;54.366;10.958;2024-03-23T05:13:59;7.00;99.90
19493;DHT22;9887;54.366;10.958;2024-03-23T05:16:27;6.90;99.90
19493;DHT22;9887;54.366;10.958;2024-03-23T05:18:54;6.90;99.90
19493;DHT22;9887;54.366;10.958;2024-03-23T05:21:20;6.90;99.90
19493;DHT22;9887;54.366;10.958;2024-03-23T05:23:47;6.90;99.90
19493;DHT22;9887;54.366;10.958;2024-03-23T05:26:13;6.90;99.90
19493;DHT22;9887;54.366;10.958;2024-03-23T05:28:40;6.80;99.90
19493;DHT22;9887;54.366;10.958;2024-03-23T05:31:06;6.80;99.90
19493;DHT22;9887;54.366;10.958;2024-03-23T05:33:36;6.80;99.90
19493;DHT22;9887;54.366;10.958;2024-03-23T05:36:04;6.80;99.90
19493;DHT22;9887;54.366;10.958;2024-03-23T05:38:31;6.80;99.90
19493;DHT22;9887;54.366;10.958;2024-03-23T05:40:59;6.80;99.90
19493;DHT22;9887;54.366;10.958;2024-03-23T05:43:26;6.80;99.90
19493;DHT22;9887;54.366;10.958;2024-03-23T05:45:55;6.80;99.90
19493;DHT22;9887;54.366;10.958;2024-03-23T05:48:23;6.80;99.90
19493;DHT22;9887;54.366;10.958;2024-03-23T05:50:50;6.70;99.90
19493;DHT22;9887;54.366;10.958;2024-03-23T05:53:18;6.80;99.90
19493;DHT22;9887;54.366;10.958;2024-03-23T05:55:44;6.70;99.90
19493;DHT22;9887;54.366;10.958;2024-03-23T05:58:11;6.70;99.90
19493;DHT22;9887;54.366;10.958;2024-03-23T06:00:37;6.70;99.90
19493;DHT22;9887;54.366;10.958;2024-03-23T06:03:04;6.70;99.90
19493;DHT22;9887;54.366;10.958;2024-03-23T06:05:30;6.70;99.90
19493;DHT22;9887;54.366;10.958;2024-03-23T06:07:59;6.60;99.90
19493;DHT22;9887;54.366;10.958;2024-03-23T06:10:25;6.70;99.90
19493;DHT22;9887;54.366;10.958;2024-03-23T06:12:52;6.70;99.90
19493;DHT22;9887;54.366;10.958;2024-03-23T06:15:18;6.70;99.90
19493;DHT22;9887;54.366;10.958;2024-03-23T06:17:45;6.70;99.90
19493;DHT22;9887;54.366;10.958;2024-03-23T06:20:11;6.70;99.90
19493;DHT22;9887;54.366;10.958;2024-03-23T06:22:38;6.70;99.90
19493;DHT22;9887;54.366;10.958;2024-03-23T06:25:07;6.70;99.90
19493;DHT22;9887;54.366;10.958;2024-03-23T06:27:34;6.70;99.90
19493;DHT22;9887;54.366;10.958;2024-03-23T06:30:00;6.70;99.90
19493;DHT22;9887;54.366;10.958;2024-03-23T06:32:27;6.80;99.90
19493;DHT22;9887;54.366;10.958;2024-03-23T06:34:54;6.70;99.90
19493;DHT22;9887;54.366;10.958;2024-03-23T06:37:21;6.70;99.90
19493;DHT22;9887;54.366;10.958;2024-03-23T06:39:47;6.80;99.90
19493;DHT22;9887;54.366;10.958;2024-03-23T06:42:16;6.80;99.90
19493;DHT22;9887;54.366;10.958;2024-03-23T06:44:43;6.80;99.90
19493;DHT22;9887;54.366;10.958;2024-03-23T06:47:10;6.80;99.90
19493;DHT22;9887;54.366;10.958;2024-03-23T06:49:36;6.80;99.90
19493;DHT22;9887;54.366;10.958;2024-03-23T06:52:03;6.80;99.90
19493;DHT22;9887;54.366;10.958;2024-03-23T06:54:30;6.90;99.90
19493;DHT22;9887;54.366;10.958;2024-03-23T06:56:57;6.90;99.90
19493;DHT22;9887;54.366;10.958;2024-03-23T06:59:24;6.90;99.90
19493;DHT22;9887;54.366;10.958;2024-03-23T07:01:51;7.00;99.90
19493;DHT22;9887;54.366;10.958;2024-03-23T07:04:17;6.90;99.90
19493;DHT22;9887;54.366;10.958;2024-03-23T07:06:44;7.00;99.90
19493;DHT22;9887;54.366;10.958;2024-03-23T07:09:11;7.00;99.90
19493;DHT22;9887;54.366;10.958;2024-03-23T07:11:38;7.00;99.90
19493;DHT22;9887;54.366;10.958;2024-03-23T07:14:04;7.00;99.90
19493;DHT22;9887;54.366;10.958;2024-03-23T07:16:32;7.10;99.90
19493;DHT22;9887;54.366;10.958;2024-03-23T07:18:58;7.10;99.90
19493;DHT22;9887;54.366;10.958;2024-03-23T07:21:25;7.10;99.90
19493;DHT22;9887;54.366;10.958;2024-03-23T07:23:51;7.10;99.90
19493;DHT22;9887;54.366;10.958;2024-03-23T07:26:18;7.20;99.90
19493;DHT22;9887;54.366;10.958;2024-03-23T07:28:44;7.20;99.90
19493;DHT22;9887;54.366;10.958;2024-03-23T07:31:13;7.20;99.90
19493;DHT22;9887;54.366;10.958;2024-03-23T07:33:44;7.30;99.90
19493;DHT22;9887;54.366;10.958;2024-03-23T07:36:12;7.30;99.90
19493;DHT22;9887;54.366;10.958;2024-03-23T07:38:40;7.30;99.90
19493;DHT22;9887;54.366;10.958;2024-03-23T07:41:08;7.30;99.90
19493;DHT22;9887;54.366;10.958;2024-03-23T07:43:35;7.40;99.90
19493;DHT22;9887;54.366;10.958;2024-03-23T07:46:02;7.40;99.90
19493;DHT22;9887;54.366;10.958;2024-03-23T07:48:30;7.40;99.90
19493;DHT22;9887;54.366;10.958;2024-03-23T07:51:02;7.40;99.90
19493;DHT22;9887;54.366;10.958;2024-03-23T07:53:29;7.50;99.90
19493;DHT22;9887;54.366;10.958;2024-03-23T07:55:57;7.50;99.90
19493;DHT22;9887;54.366;10.958;2024-03-23T07:58:23;7.50;99.90
19493;DHT22;9887;54.366;10.958;2024-03-23T08:00:50;7.60;99.90
19493;DHT22;9887;54.366;10.958;2024-03-23T08:03:16;7.60;99.90
19493;DHT22;9887;54.366;10.958;2024-03-23T08:05:43;7.70;99.90
19493;DHT22;9887;54.366;10.958;2024-03-23T08:08:10;7.70;99.90
19493;DHT22;9887;54.366;10.958;2024-03-23T08:10:38;7.70;99.90
19493;DHT22;9887;54.366;10.958;2024-03-23T08:13:12;7.80;99.90
19493;DHT22;9887;54.366;10.958;2024-03-23T08:15:39;7.80;99.90
19493;DHT22;9887;54.366;10.958;2024-03-23T08:18:05;7.90;99.90
19493;DHT22;9887;54.366;10.958;2024-03-23T08:20:32;7.90;99.90
19493;DHT22;9887;54.366;10.958;2024-03-23T08:22:58;7.90;99.90
19493;DHT22;9887;54.366;10.958;2024-03-23T08:25:26;8.00;99.90
19493;DHT22;9887;54.366;10.958;2024-03-23T08:27:52;8.00;99.90
19493;DHT22;9887;54.366;10.958;2024-03-23T08:30:19;8.10;99.90
19493;DHT22;9887;54.366;10.958;2024-03-23T08:32:45;8.20;99.90
19493;DHT22;9887;54.366;10.958;2024-03-23T08:35:13;8.20;99.90
19493;DHT22;9887;54.366;10.958;2024-03-23T08:37:39;8.30;99.90
19493;DHT22;9887;54.366;10.958;2024-03-23T08:40:08;8.40;99.90
19493;DHT22;9887;54.366;10.958;2024-03-23T08:42:35;8.40;99.90
19493;DHT22;9887;54.366;10.958;2024-03-23T08:45:03;8.50;99.90
19493;DHT22;9887;54.366;10.958;2024-03-23T08:47:30;8.50;99.90
19493;DHT22;9887;54.366;10.958;2024-03-23T08:49:56;8.60;99.90
19493;DHT22;9887;54.366;10.958;2024-03-23T08:52:23;8.60;99.90
19493;DHT22;9887;54.366;10.958;2024-03-23T08:54:53;8.70;99.90
19493;DHT22;9887;54.366;10.958;2024-03-23T08:57:18;8.80;99.90
19493;DHT22;9887;54.366;10.958;2024-03-23T08:59:47;8.80;99.90
19493;DHT22;9887;54.366;10.958;2024-03-23T09:02:13;8.90;99.90
19493;DHT22;9887;54.366;10.958;2024-03-23T09:04:40;8.90;99.90
19493;DHT22;9887;54.366;10.958;2024-03-23T09:07:06;9.00;99.90
19493;DHT22;9887;54.366;10.958;2024-03-23T09:09:33;9.10;99.90
19493;DHT22;9887;54.366;10.958;2024-03-23T09:11:59;9.10;99.90
19493;DHT22;9887;54.366;10.958;2024-03-23T09:14:26;9.20;99.90
19493;DHT22;9887;54.366;10.958;2024-03-23T09:16:53;9.20;99.90
19493;DHT22;9887;54.366;10.958;2024-03-23T09:19:20;9.30;99.90
19493;DHT22;9887;54.366;10.958;2024-03-23T09:21:46;9.30;99.90
19493;DHT22;9887;54.366;10.958;2024-03-23T09:24:13;9.40;99.90
19493;DHT22;9887;54.366;10.958;2024-03-23T09:26:39;9.50;99.90
19493;DHT22;9887;54.366;10.958;2024-03-23T09:29:06;9.50;99.90
19493;DHT22;9887;54.366;10.958;2024-03-23T09:31:32;9.60;99.90
19493;DHT22;9887;54.366;10.958;2024-03-23T09:34:00;9.70;99.90
19493;DHT22;9887;54.366;10.958;2024-03-23T09:36:26;9.80;99.90
19493;DHT22;9887;54.366;10.958;2024-03-23T09:38:53;9.90;99.90
19493;DHT22;9887;54.366;10.958;2024-03-23T09:41:19;10.00;99.90
19493;DHT22;9887;54.366;10.958;2024-03-23T09:43:46;10.10;99.90
19493;DHT22;9887;54.366;10.958;2024-03-23T09:46:14;10.10;99.90
19493;DHT22;9887;54.366;10.958;2024-03-23T09:48:42;10.20;99.90
19493;DHT22;9887;54.366;10.958;2024-03-23T09:51:10;10.20;99.90
19493;DHT22;9887;54.366;10.958;2024-03-23T09:53:38;10.40;99.90
19493;DHT22;9887;54.366;10.958;2024-03-23T09:56:04;10.40;99.90
19493;DHT22;9887;54.366;10.958;2024-03-23T09:58:31;10.50;99.90
19493;DHT22;9887;54.366;10.958;2024-03-23T10:00:58;11.00;99.90
19493;DHT22;9887;54.366;10.958;2024-03-23T10:03:25;10.60;99.90
19493;DHT22;9887;54.366;10.958;2024-03-23T10:06:00;10.70;99.90
19493;DHT22;9887;54.366;10.958;2024-03-23T10:08:29;10.70;99.90
19493;DHT22;9887;54.366;10.958;2024-03-23T10:10:56;10.70;99.90
19493;DHT22;9887;54.366;10.958;2024-03-23T10:13:27;10.70;99.90
19493;DHT22;9887;54.366;10.958;2024-03-23T10:15:56;10.70;99.90
19493;DHT22;9887;54.366;10.958;2024-03-23T10:18:24;10.70;99.90
19493;DHT22;9887;54.366;10.958;2024-03-23T10:20:52;10.60;99.90
19493;DHT22;9887;54.366;10.958;2024-03-23T10:23:19;10.60;99.90
19493;DHT22;9887;54.366;10.958;2024-03-23T10:25:46;10.60;99.90
19493;DHT22;9887;54.366;10.958;2024-03-23T10:28:13;10.60;99.90
19493;DHT22;9887;54.366;10.958;2024-03-23T10:30:39;10.60;99.90
19493;DHT22;9887;54.366;10.958;2024-03-23T10:33:10;10.50;99.90
19493;DHT22;9887;54.366;10.958;2024-03-23T10:35:36;10.50;99.90
19493;DHT22;9887;54.366;10.958;2024-03-23T10:38:05;10.40;99.90
19493;DHT22;9887;54.366;10.958;2024-03-23T10:40:34;10.40;99.90
19493;DHT22;9887;54.366;10.958;2024-03-23T10:43:03;10.40;99.90
19493;DHT22;9887;54.366;10.958;2024-03-23T10:45:30;10.30;99.90
19493;DHT22;9887;54.366;10.958;2024-03-23T10:47:57;10.30;99.90
19493;DHT22;9887;54.366;10.958;2024-03-23T10:50:23;10.20;99.90
19493;DHT22;9887;54.366;10.958;2024-03-23T10:52:53;10.20;99.90
19493;DHT22;9887;54.366;10.958;2024-03-23T10:55:21;10.10;99.90
19493;DHT22;9887;54.366;10.958;2024-03-23T10:57:51;10.10;99.90
19493;DHT22;9887;54.366;10.958;2024-03-23T11:00:20;10.00;99.90
19493;DHT22;9887;54.366;10.958;2024-03-23T11:02:49;10.00;99.90
19493;DHT22;9887;54.366;10.958;2024-03-23T11:05:29;9.90;99.90
19493;DHT22;9887;54.366;10.958;2024-03-23T11:07:56;9.90;99.90
19493;DHT22;9887;54.366;10.958;2024-03-23T11:10:26;9.90;99.90
19493;DHT22;9887;54.366;10.958;2024-03-23T11:12:54;9.80;99.90
19493;DHT22;9887;54.366;10.958;2024-03-23T11:15:22;9.80;99.90
19493;DHT22;9887;54.366;10.958;2024-03-23T11:18:05;9.80;99.90
19493;DHT22;9887;54.366;10.958;2024-03-23T11:20:34;9.80;99.90
19493;DHT22;9887;54.366;10.958;2024-03-23T11:23:01;9.80;99.90
19493;DHT22;9887;54.366;10.958;2024-03-23T11:25:28;9.70;99.90
19493;DHT22;9887;54.366;10.958;2024-03-23T11:27:56;9.60;99.90
19493;DHT22;9887;54.366;10.958;2024-03-23T11:30:25;9.60;99.90
19493;DHT22;9887;54.366;10.958;2024-03-23T11:32:54;9.50;99.90
19493;DHT22;9887;54.366;10.958;2024-03-23T11:35:27;9.50;99.90
19493;DHT22;9887;54.366;10.958;2024-03-23T11:38:05;9.40;99.90
19493;DHT22;9887;54.366;10.958;2024-03-23T11:40:31;9.40;99.90
19493;DHT22;9887;54.366;10.958;2024-03-23T11:42:59;9.40;99.90
19493;DHT22;9887;54.366;10.958;2024-03-23T11:45:27;9.40;99.90
19493;DHT22;9887;54.366;10.958;2024-03-23T11:48:05;9.40;99.90
19493;DHT22;9887;54.366;10.958;2024-03-23T11:50:32;9.40;99.90
19493;DHT22;9887;54.366;10.958;2024-03-23T11:53:13;9.40;99.90
19493;DHT22;9887;54.366;10.958;2024-03-23T11:55:41;9.40;99.90
19493;DHT22;9887;54.366;10.958;2024-03-23T11:58:09;9.40;99.90
19493;DHT22;9887;54.366;10.958;2024-03-23T12:00:36;9.40;99.90
19493;DHT22;9887;54.366;10.958;2024-03-23T12:03:05;9.40;99.90
19493;DHT22;9887;54.366;10.958;2024-03-23T12:05:31;9.50;99.90
19493;DHT22;9887;54.366;10.958;2024-03-23T12:08:19;9.50;99.90
19493;DHT22;9887;54.366;10.958;2024-03-23T12:10:48;9.60;99.90
19493;DHT22;9887;54.366;10.958;2024-03-23T12:13:21;9.60;99.90
19493;DHT22;9887;54.366;10.958;2024-03-23T12:15:50;9.70;99.90
19493;DHT22;9887;54.366;10.958;2024-03-23T12:18:18;9.70;99.90
19493;DHT22;9887;54.366;10.958;2024-03-23T12:20:49;9.80;99.90
19493;DHT22;9887;54.366;10.958;2024-03-23T12:23:16;9.90;99.90
19493;DHT22;9887;54.366;10.958;2024-03-23T12:25:43;9.90;99.90
19493;DHT22;9887;54.366;10.958;2024-03-23T12:28:10;10.00;99.90
19493;DHT22;9887;54.366;10.958;2024-03-23T12:30:38;10.10;99.90
19493;DHT22;9887;54.366;10.958;2024-03-23T12:33:07;10.10;99.90
19493;DHT22;9887;54.366;10.958;2024-03-23T12:35:33;10.20;99.90
19493;DHT22;9887;54.366;10.958;2024-03-23T12:38:00;10.30;99.90
19493;DHT22;9887;54.366;10.958;2024-03-23T12:40:26;10.30;99.90
19493;DHT22;9887;54.366;10.958;2024-03-23T12:42:54;10.30;99.90
19493;DHT22;9887;54.366;10.958;2024-03-23T12:45:20;10.30;99.90
19493;DHT22;9887;54.366;10.958;2024-03-23T12:47:47;10.30;99.90
19493;DHT22;9887;54.366;10.958;2024-03-23T12:50:14;10.30;99.90
19493;DHT22;9887;54.366;10.958;2024-03-23T12:52:41;10.30;99.90
19493;DHT22;9887;54.366;10.958;2024-03-23T12:55:08;10.30;99.90
19493;DHT22;9887;54.366;10.958;2024-03-23T12:57:35;10.30;99.90
19493;DHT22;9887;54.366;10.958;2024-03-23T13:00:02;10.30;99.90
19493;DHT22;9887;54.366;10.958;2024-03-23T13:02:30;10.20;99.90
19493;DHT22;9887;54.366;10.958;2024-03-23T13:04:56;10.30;99.90
19493;DHT22;9887;54.366;10.958;2024-03-23T13:07:25;10.30;99.90
19493;DHT22;9887;54.366;10.958;2024-03-23T13:09:51;10.30;99.90
19493;DHT22;9887;54.366;10.958;2024-03-23T13:12:19;10.40;99.90
19493;DHT22;9887;54.366;10.958;2024-03-23T13:14:45;10.40;99.90
19493;DHT22;9887;54.366;10.958;2024-03-23T13:17:12;10.40;99.90
19493;DHT22;9887;54.366;10.958;2024-03-23T13:19:39;10.40;99.90
19493;DHT22;9887;54.366;10.958;2024-03-23T13:22:05;10.40;99.90
19493;DHT22;9887;54.366;10.958;2024-03-23T13:24:33;10.50;99.90
19493;DHT22;9887;54.366;10.958;2024-03-23T13:26:59;10.50;99.90
19493;DHT22;9887;54.366;10.958;2024-03-23T13:29:26;10.60;99.90
19493;DHT22;9887;54.366;10.958;2024-03-23T13:31:52;10.60;99.90
19493;DHT22;9887;54.366;10.958;2024-03-23T13:34:19;10.60;99.90
19493;DHT22;9887;54.366;10.958;2024-03-23T13:36:46;10.60;99.90
19493;DHT22;9887;54.366;10.958;2024-03-23T13:39:14;10.60;99.90
19493;DHT22;9887;54.366;10.958;2024-03-23T13:41:43;10.60;99.90
19493;DHT22;9887;54.366;10.958;2024-03-23T13:44:11;10.50;99.90
19493;DHT22;9887;54.366;10.958;2024-03-23T13:46:37;10.50;99.90
19493;DHT22;9887;54.366;10.958;2024-03-23T13:49:05;10.50;99.90
19493;DHT22;9887;54.366;10.958;2024-03-23T13:51:32;10.60;99.90
19493;DHT22;9887;54.366;10.958;2024-03-23T13:53:59;10.60;99.90
19493;DHT22;9887;54.366;10.958;2024-03-23T13:56:26;10.60;99.90
19493;DHT22;9887;54.366;10.958;2024-03-23T13:58:56;10.60;99.90
19493;DHT22;9887;54.366;10.958;2024-03-23T14:01:22;10.60;99.90
19493;DHT22;9887;54.366;10.958;2024-03-23T14:03:49;10.60;99.90
19493;DHT22;9887;54.366;10.958;2024-03-23T14:06:16;10.60;99.90
19493;DHT22;9887;54.366;10.958;2024-03-23T14:08:42;10.70;99.90
19493;DHT22;9887;54.366;10.958;2024-03-23T14:11:09;10.70;99.90
19493;DHT22;9887;54.366;10.958;2024-03-23T14:13:36;10.70;99.90
19493;DHT22;9887;54.366;10.958;2024-03-23T14:16:04;10.70;99.90
19493;DHT22;9887;54.366;10.958;2024-03-23T14:18:31;10.70;99.90
19493;DHT22;9887;54.366;10.958;2024-03-23T14:20:59;10.70;99.90
19493;DHT22;9887;54.366;10.958;2024-03-23T14:23:26;10.70;99.90
19493;DHT22;9887;54.366;10.958;2024-03-23T14:25:53;10.70;99.90
19493;DHT22;9887;54.366;10.958;2024-03-23T14:28:21;10.70;99.90
19493;DHT22;9887;54.366;10.958;2024-03-23T14:30:48;10.70;99.90
19493;DHT22;9887;54.366;10.958;2024-03-23T14:33:16;10.70;99.90
19493;DHT22;9887;54.366;10.958;2024-03-23T14:35:43;10.70;99.90
19493;DHT22;9887;54.366;10.958;2024-03-23T14:38:12;10.70;99.90
19493;DHT22;9887;54.366;10.958;2024-03-23T14:40:37;10.60;99.90
19493;DHT22;9887;54.366;10.958;2024-03-23T14:43:04;10.60;99.90
19493;DHT22;9887;54.366;10.958;2024-03-23T14:45:30;10.60;99.90
19493;DHT22;9887;54.366;10.958;2024-03-23T14:47:57;10.60;99.90
19493;DHT22;9887;54.366;10.958;2024-03-23T14:50:26;10.60;99.90
19493;DHT22;9887;54.366;10.958;2024-03-23T14:52:53;10.60;99.90
19493;DHT22;9887;54.366;10.958;2024-03-23T14:55:19;10.60;99.90
19493;DHT22;9887;54.366;10.958;2024-03-23T14:57:46;10.60;99.90
19493;DHT22;9887;54.366;10.958;2024-03-23T15:00:12;10.50;99.90
19493;DHT22;9887;54.366;10.958;2024-03-23T15:02:40;10.50;99.90
19493;DHT22;9887;54.366;10.958;2024-03-23T15:05:07;10.50;99.90
19493;DHT22;9887;54.366;10.958;2024-03-23T15:07:37;10.50;99.90
19493;DHT22;9887;54.366;10.958;2024-03-23T15:10:04;10.40;99.90
19493;DHT22;9887;54.366;10.958;2024-03-23T15:12:31;10.40;99.90
19493;DHT22;9887;54.366;10.958;2024-03-23T15:14:58;10.30;99.90
19493;DHT22;9887;54.366;10.958;2024-03-23T15:17:25;10.30;99.90
19493;DHT22;9887;54.366;10.958;2024-03-23T15:19:51;10.30;99.90
19493;DHT22;9887;54.366;10.958;2024-03-23T15:22:19;10.30;99.90
19493;DHT22;9887;54.366;10.958;2024-03-23T15:24:47;10.20;99.90
19493;DHT22;9887;54.366;10.958;2024-03-23T15:27:14;10.20;99.90
19493;DHT22;9887;54.366;10.958;2024-03-23T15:29:40;10.20;99.90
19493;DHT22;9887;54.366;10.958;2024-03-23T15:32:11;10.10;99.90
19493;DHT22;9887;54.366;10.958;2024-03-23T15:34:37;10.10;99.90
19493;DHT22;9887;54.366;10.958;2024-03-23T15:37:04;10.10;99.90
19493;DHT22;9887;54.366;10.958;2024-03-23T15:39:30;10.00;99.90
19493;DHT22;9887;54.366;10.958;2024-03-23T15:41:59;10.00;99.90
19493;DHT22;9887;54.366;10.958;2024-03-23T15:44:25;10.00;99.90
19493;DHT22;9887;54.366;10.958;2024-03-23T15:46:52;10.00;99.90
19493;DHT22;9887;54.366;10.958;2024-03-23T15:49:18;9.90;99.90
19493;DHT22;9887;54.366;10.958;2024-03-23T15:51:45;9.90;99.90
19493;DHT22;9887;54.366;10.958;2024-03-23T15:54:11;9.80;99.90
19493;DHT22;9887;54.366;10.958;2024-03-23T15:56:38;9.80;99.90
19493;DHT22;9887;54.366;10.958;2024-03-23T15:59:06;9.80;99.90
19493;DHT22;9887;54.366;10.958;2024-03-23T16:01:33;9.80;99.90
19493;DHT22;9887;54.366;10.958;2024-03-23T16:04:01;9.80;99.90
19493;DHT22;9887;54.366;10.958;2024-03-23T16:06:27;9.70;99.90
19493;DHT22;9887;54.366;10.958;2024-03-23T16:08:53;9.70;99.90
19493;DHT22;9887;54.366;10.958;2024-03-23T16:11:20;9.70;99.90
19493;DHT22;9887;54.366;10.958;2024-03-23T16:13:46;9.60;99.90
19493;DHT22;9887;54.366;10.958;2024-03-23T16:16:14;9.60;99.90
19493;DHT22;9887;54.366;10.958;2024-03-23T16:18:42;9.60;99.90
19493;DHT22;9887;54.366;10.958;2024-03-23T16:21:11;9.50;99.90
19493;DHT22;9887;54.366;10.958;2024-03-23T16:23:37;9.50;99.90
19493;DHT22;9887;54.366;10.958;2024-03-23T16:26:06;9.50;99.90
19493;DHT22;9887;54.366;10.958;2024-03-23T16:28:34;9.50;99.90
19493;DHT22;9887;54.366;10.958;2024-03-23T16:31:03;9.50;99.90
19493;DHT22;9887;54.366;10.958;2024-03-23T16:33:30;9.50;99.90
19493;DHT22;9887;54.366;10.958;2024-03-23T16:35:58;9.40;99.90
19493;DHT22;9887;54.366;10.958;2024-03-23T16:38:25;9.40;99.90